N395T KAVP-KOQN
Flight info
| Callsign | N395T |
|---|---|
| Flight time | 0h 26m |
| Altitude | 12000 |
| Route | WLKES T335 PTW DASDE |
| Aircraft | PC12/L-SDFGRWY/S |
Departure
| Time | 2026-04-22 02:50 |
|---|---|
| Airport | Wilkes-Barre/Scranton International Airport (KAVP) |
Arrival
| Time | 2026-04-22 03:17 |
|---|---|
| Airport | Brandywine Regional Airport (KOQN) |
| Time | Latitude | Longitude | Altitude | Speed | Heading |
|---|---|---|---|---|---|
| 2026-04-22 02:34 | 41.33444 | -75.73071 | 950 ft | 0 kts | 32° |
| 2026-04-22 02:44 | 41.33448 | -75.73066 | 950 ft | 4 kts | 60° |
| 2026-04-22 02:44 | 41.33440 | -75.73038 | 950 ft | 3 kts | 120° |
| 2026-04-22 02:44 | 41.33429 | -75.73003 | 951 ft | 5 kts | 88° |
| 2026-04-22 02:45 | 41.33454 | -75.72937 | 950 ft | 11 kts | 59° |
| 2026-04-22 02:45 | 41.33489 | -75.72836 | 949 ft | 12 kts | 91° |
| 2026-04-22 02:45 | 41.33546 | -75.72751 | 947 ft | 14 kts | 32° |
| 2026-04-22 02:45 | 41.33639 | -75.72671 | 944 ft | 18 kts | 32° |
| 2026-04-22 02:46 | 41.33732 | -75.72593 | 942 ft | 18 kts | 32° |
| 2026-04-22 02:46 | 41.33833 | -75.72507 | 938 ft | 17 kts | 33° |
| 2026-04-22 02:46 | 41.33938 | -75.72417 | 934 ft | 19 kts | 32° |
| 2026-04-22 02:46 | 41.34055 | -75.72318 | 931 ft | 20 kts | 32° |
| 2026-04-22 02:47 | 41.34174 | -75.72217 | 931 ft | 21 kts | 32° |
| 2026-04-22 02:47 | 41.34270 | -75.72136 | 929 ft | 14 kts | 32° |
| 2026-04-22 02:47 | 41.34348 | -75.72071 | 926 ft | 11 kts | 33° |
| 2026-04-22 02:47 | 41.34375 | -75.72023 | 927 ft | 3 kts | 84° |
| 2026-04-22 02:48 | 41.34371 | -75.72002 | 925 ft | 0 kts | 112° |
| 2026-04-22 02:49 | 41.34369 | -75.71996 | 925 ft | 4 kts | 112° |
| 2026-04-22 02:49 | 41.34349 | -75.71953 | 925 ft | 9 kts | 133° |
| 2026-04-22 02:49 | 41.34270 | -75.71964 | 926 ft | 21 kts | 209° |
| 2026-04-22 02:49 | 41.34006 | -75.72186 | 930 ft | 69 kts | 212° |
| 2026-04-22 02:50 | 41.33514 | -75.72606 | 1023 ft | 95 kts | 211° |
| 2026-04-22 02:50 | 41.32961 | -75.73114 | 1372 ft | 100 kts | 211° |
| 2026-04-22 02:50 | 41.32355 | -75.73692 | 1703 ft | 115 kts | 207° |
| 2026-04-22 02:50 | 41.31585 | -75.74008 | 2280 ft | 120 kts | 179° |
| 2026-04-22 02:51 | 41.30778 | -75.73689 | 2857 ft | 125 kts | 154° |
| 2026-04-22 02:51 | 41.30112 | -75.72863 | 3366 ft | 139 kts | 141° |
| 2026-04-22 02:51 | 41.29431 | -75.71924 | 3828 ft | 148 kts | 143° |
| 2026-04-22 02:51 | 41.28664 | -75.70867 | 4131 ft | 169 kts | 142° |
| 2026-04-22 02:52 | 41.27810 | -75.69687 | 4439 ft | 182 kts | 144° |
| 2026-04-22 02:52 | 41.26719 | -75.68971 | 4848 ft | 172 kts | 178° |
| 2026-04-22 02:52 | 41.25543 | -75.68910 | 5286 ft | 170 kts | 188° |
| 2026-04-22 02:52 | 41.24340 | -75.68908 | 5713 ft | 176 kts | 189° |
| 2026-04-22 02:53 | 41.23101 | -75.68900 | 6152 ft | 181 kts | 190° |
| 2026-04-22 02:53 | 41.21836 | -75.68894 | 6508 ft | 191 kts | 191° |
| 2026-04-22 02:53 | 41.20467 | -75.68886 | 6858 ft | 200 kts | 190° |
| 2026-04-22 02:53 | 41.19052 | -75.68874 | 7201 ft | 206 kts | 190° |
| 2026-04-22 02:54 | 41.17602 | -75.68860 | 7551 ft | 210 kts | 190° |
| 2026-04-22 02:54 | 41.16133 | -75.68848 | 7811 ft | 212 kts | 190° |
| 2026-04-22 02:54 | 41.14651 | -75.68836 | 8069 ft | 212 kts | 189° |
| 2026-04-22 02:54 | 41.13198 | -75.68824 | 8316 ft | 212 kts | 190° |
| 2026-04-22 02:55 | 41.11705 | -75.68814 | 8577 ft | 214 kts | 189° |
| 2026-04-22 02:55 | 41.10201 | -75.68803 | 8838 ft | 216 kts | 189° |
| 2026-04-22 02:55 | 41.08694 | -75.68791 | 9097 ft | 217 kts | 189° |
| 2026-04-22 02:55 | 41.07175 | -75.68779 | 9363 ft | 219 kts | 189° |
| 2026-04-22 02:56 | 41.05664 | -75.68767 | 9636 ft | 220 kts | 189° |
| 2026-04-22 02:56 | 41.04129 | -75.68755 | 9891 ft | 221 kts | 189° |
| 2026-04-22 02:56 | 41.02606 | -75.68743 | 10154 ft | 223 kts | 189° |
| 2026-04-22 02:56 | 41.01023 | -75.68731 | 10399 ft | 223 kts | 189° |
| 2026-04-22 02:57 | 40.99467 | -75.68719 | 10640 ft | 223 kts | 189° |
| 2026-04-22 02:57 | 40.97937 | -75.68707 | 10873 ft | 223 kts | 189° |
| 2026-04-22 02:57 | 40.96374 | -75.68695 | 11126 ft | 223 kts | 189° |
| 2026-04-22 02:57 | 40.94821 | -75.68683 | 11383 ft | 224 kts | 189° |
| 2026-04-22 02:58 | 40.93255 | -75.68672 | 11622 ft | 225 kts | 189° |
| 2026-04-22 02:58 | 40.91690 | -75.68660 | 11877 ft | 225 kts | 189° |
| 2026-04-22 02:58 | 40.90111 | -75.68649 | 12032 ft | 231 kts | 189° |
| 2026-04-22 02:58 | 40.88469 | -75.68643 | 12032 ft | 240 kts | 189° |
| 2026-04-22 02:59 | 40.86774 | -75.68629 | 12031 ft | 246 kts | 188° |
| 2026-04-22 02:59 | 40.85048 | -75.68611 | 12039 ft | 250 kts | 188° |
| 2026-04-22 02:59 | 40.83293 | -75.68597 | 12050 ft | 254 kts | 188° |
| 2026-04-22 02:59 | 40.81518 | -75.68584 | 12049 ft | 256 kts | 188° |
| 2026-04-22 03:00 | 40.79766 | -75.68570 | 12047 ft | 256 kts | 188° |
| 2026-04-22 03:00 | 40.77948 | -75.68555 | 12049 ft | 257 kts | 188° |
| 2026-04-22 03:00 | 40.76175 | -75.68542 | 12049 ft | 258 kts | 188° |
| 2026-04-22 03:00 | 40.74379 | -75.68527 | 12050 ft | 257 kts | 188° |
| 2026-04-22 03:01 | 40.72585 | -75.68514 | 12053 ft | 257 kts | 188° |
| 2026-04-22 03:01 | 40.70785 | -75.68501 | 12048 ft | 258 kts | 188° |
| 2026-04-22 03:01 | 40.69598 | -75.68492 | 12051 ft | 258 kts | 188° |
| 2026-04-22 03:01 | 40.67818 | -75.68478 | 12057 ft | 259 kts | 188° |
| 2026-04-22 03:02 | 40.65399 | -75.68459 | 12052 ft | 260 kts | 188° |
| 2026-04-22 03:02 | 40.63590 | -75.68445 | 12058 ft | 260 kts | 188° |
| 2026-04-22 03:02 | 40.62404 | -75.68436 | 12054 ft | 260 kts | 188° |
| 2026-04-22 03:02 | 40.60572 | -75.68423 | 12057 ft | 261 kts | 188° |
| 2026-04-22 03:03 | 40.58753 | -75.68407 | 12051 ft | 261 kts | 187° |
| 2026-04-22 03:03 | 40.56938 | -75.68029 | 12050 ft | 266 kts | 172° |
| 2026-04-22 03:03 | 40.55166 | -75.67393 | 12056 ft | 268 kts | 171° |
| 2026-04-22 03:03 | 40.53362 | -75.66746 | 12056 ft | 268 kts | 172° |
| 2026-04-22 03:04 | 40.51559 | -75.66125 | 12055 ft | 268 kts | 172° |
| 2026-04-22 03:04 | 40.49755 | -75.65508 | 12055 ft | 268 kts | 172° |
| 2026-04-22 03:04 | 40.47947 | -75.64884 | 12061 ft | 268 kts | 172° |
| 2026-04-22 03:04 | 40.46139 | -75.64258 | 12057 ft | 269 kts | 172° |
| 2026-04-22 03:05 | 40.44329 | -75.63632 | 12058 ft | 269 kts | 172° |
| 2026-04-22 03:05 | 40.42535 | -75.63014 | 12057 ft | 269 kts | 172° |
| 2026-04-22 03:05 | 40.40723 | -75.62388 | 12066 ft | 269 kts | 172° |
| 2026-04-22 03:05 | 40.38908 | -75.61762 | 12071 ft | 269 kts | 172° |
| 2026-04-22 03:06 | 40.37092 | -75.61137 | 12073 ft | 269 kts | 172° |
| 2026-04-22 03:06 | 40.35280 | -75.60513 | 12071 ft | 269 kts | 172° |
| 2026-04-22 03:06 | 40.33486 | -75.59895 | 12074 ft | 270 kts | 172° |
| 2026-04-22 03:06 | 40.31663 | -75.59285 | 12069 ft | 266 kts | 175° |
| 2026-04-22 03:07 | 40.29922 | -75.59485 | 12075 ft | 242 kts | 212° |
| 2026-04-22 03:07 | 40.28517 | -75.60591 | 12080 ft | 232 kts | 226° |
| 2026-04-22 03:07 | 40.27223 | -75.61863 | 12082 ft | 233 kts | 227° |
| 2026-04-22 03:07 | 40.25894 | -75.63090 | 12078 ft | 236 kts | 223° |
| 2026-04-22 03:08 | 40.24519 | -75.64239 | 12076 ft | 237 kts | 222° |
| 2026-04-22 03:08 | 40.23122 | -75.65398 | 12077 ft | 236 kts | 222° |
| 2026-04-22 03:08 | 40.21737 | -75.66571 | 12077 ft | 237 kts | 223° |
| 2026-04-22 03:08 | 40.20357 | -75.67745 | 12070 ft | 236 kts | 223° |
| 2026-04-22 03:09 | 40.18996 | -75.68899 | 12075 ft | 236 kts | 223° |
| 2026-04-22 03:09 | 40.17608 | -75.70071 | 12025 ft | 238 kts | 223° |
| 2026-04-22 03:09 | 40.16186 | -75.71283 | 11565 ft | 250 kts | 222° |
| 2026-04-22 03:09 | 40.14705 | -75.72535 | 10998 ft | 252 kts | 221° |
| 2026-04-22 03:10 | 40.13253 | -75.73749 | 10389 ft | 242 kts | 220° |
| 2026-04-22 03:10 | 40.11863 | -75.74923 | 9619 ft | 239 kts | 221° |
| 2026-04-22 03:10 | 40.10479 | -75.76093 | 8843 ft | 234 kts | 219° |
| 2026-04-22 03:10 | 40.08937 | -75.76855 | 8085 ft | 235 kts | 202° |
| 2026-04-22 03:11 | 40.07374 | -75.77393 | 7341 ft | 231 kts | 202° |
| 2026-04-22 03:11 | 40.05809 | -75.77848 | 6606 ft | 230 kts | 198° |
| 2026-04-22 03:11 | 40.04203 | -75.78077 | 5695 ft | 233 kts | 190° |
| 2026-04-22 03:11 | 40.02619 | -75.78150 | 4934 ft | 226 kts | 187° |
| 2026-04-22 03:12 | 40.01093 | -75.78193 | 4331 ft | 212 kts | 186° |
| 2026-04-22 03:12 | 39.98488 | -75.77298 | 3553 ft | 196 kts | 152° |
| 2026-04-22 03:12 | 39.97511 | -75.76102 | 3346 ft | 182 kts | 137° |
| 2026-04-22 03:13 | 39.96911 | -75.74704 | 3141 ft | 177 kts | 119° |
| 2026-04-22 03:13 | 39.96630 | -75.73125 | 2806 ft | 180 kts | 102° |
| 2026-04-22 03:13 | 39.96653 | -75.71558 | 2669 ft | 169 kts | 91° |
| 2026-04-22 03:13 | 39.96822 | -75.70128 | 2523 ft | 152 kts | 87° |
| 2026-04-22 03:14 | 39.97030 | -75.68826 | 2346 ft | 139 kts | 86° |
| 2026-04-22 03:14 | 39.97259 | -75.67647 | 2150 ft | 130 kts | 82° |
| 2026-04-22 03:14 | 39.97512 | -75.66517 | 1974 ft | 128 kts | 83° |
| 2026-04-22 03:14 | 39.97731 | -75.65432 | 1736 ft | 121 kts | 84° |
| 2026-04-22 03:15 | 39.97910 | -75.64452 | 1537 ft | 104 kts | 86° |
| 2026-04-22 03:15 | 39.98060 | -75.63560 | 1356 ft | 98 kts | 86° |
| 2026-04-22 03:15 | 39.98191 | -75.62692 | 1225 ft | 97 kts | 82° |
| 2026-04-22 03:15 | 39.98342 | -75.61840 | 1132 ft | 95 kts | 81° |
| 2026-04-22 03:16 | 39.98489 | -75.61011 | 957 ft | 95 kts | 79° |
| 2026-04-22 03:16 | 39.98640 | -75.60182 | 781 ft | 91 kts | 78° |
| 2026-04-22 03:16 | 39.98792 | -75.59382 | 638 ft | 90 kts | 77° |
| 2026-04-22 03:16 | 39.98935 | -75.58610 | 472 ft | 83 kts | 76° |
| 2026-04-22 03:17 | 39.99052 | -75.57977 | 466 ft | 60 kts | 77° |
| 2026-04-22 03:17 | 39.99101 | -75.57716 | 472 ft | 10 kts | 76° |
| 2026-04-22 03:17 | 39.99112 | -75.57652 | 470 ft | 4 kts | 76° |
| 2026-04-22 03:17 | 39.99097 | -75.57613 | 469 ft | 7 kts | 169° |
| 2026-04-22 03:18 | 39.99067 | -75.57660 | 471 ft | 9 kts | 252° |
| 2026-04-22 03:18 | 39.99052 | -75.57745 | 471 ft | 11 kts | 257° |
| 2026-04-22 03:18 | 39.99017 | -75.57759 | 469 ft | 7 kts | 122° |
| 2026-04-22 03:18 | 39.98988 | -75.57785 | 467 ft | 8 kts | 317° |
| 2026-04-22 03:19 | 39.98996 | -75.57790 | 468 ft | 0 kts | 344° |